Philadelphia, Pennsylvania
Traffic Map
Current Weather Conditions
Philadelphia, Pennsylvania
Overcast
Overcast

Feels Like: 9°
Wind Chill: Ceiling: 15000
Heat Index: Visibility: 10mi
Dew Point: Wind: 3mph
Humidity: 58% Direction: 180° (S)
Pressure: 30.18in Gusts: 0mph
Raw Report DataKPHL 260354Z 18003KT 10SM BKN150 OVC220 09/01 A3018 RMK AO2 SLP220 T00890011 $
Traffic Incident Summary
Active as of:
Severity:
Category:
InformationThere was an issue retrieving the traffic information for this location. Please try a different location or try again shortly.
Advertisements
Track Severe Weather on mobile